sensor_id;sensor_type;location;lat;lon;timestamp;temperature;humidity
285;DHT22;127;48.770;9.212;2023-03-23T00:00:13;14.00;99.90
285;DHT22;127;48.770;9.212;2023-03-23T00:02:41;14.00;99.90
285;DHT22;127;48.770;9.212;2023-03-23T00:05:11;14.00;99.90
285;DHT22;127;48.770;9.212;2023-03-23T00:07:39;14.00;99.90
285;DHT22;127;48.770;9.212;2023-03-23T00:10:11;14.10;99.90
285;DHT22;127;48.770;9.212;2023-03-23T00:12:43;14.00;99.90
285;DHT22;127;48.770;9.212;2023-03-23T00:15:15;14.00;99.90
285;DHT22;127;48.770;9.212;2023-03-23T00:17:44;14.00;99.90
285;DHT22;127;48.770;9.212;2023-03-23T00:20:13;14.00;99.90
285;DHT22;127;48.770;9.212;2023-03-23T00:22:42;13.90;99.90
285;DHT22;127;48.770;9.212;2023-03-23T00:25:10;13.90;99.90
285;DHT22;127;48.770;9.212;2023-03-23T00:27:44;13.90;99.90
285;DHT22;127;48.770;9.212;2023-03-23T00:30:13;13.90;99.90
285;DHT22;127;48.770;9.212;2023-03-23T00:32:43;13.90;99.90
285;DHT22;127;48.770;9.212;2023-03-23T00:35:12;13.80;99.90
285;DHT22;127;48.770;9.212;2023-03-23T00:37:41;13.70;99.90
285;DHT22;127;48.770;9.212;2023-03-23T00:40:10;13.70;99.90
285;DHT22;127;48.770;9.212;2023-03-23T00:42:39;13.70;99.90
285;DHT22;127;48.770;9.212;2023-03-23T00:45:12;13.70;99.90
285;DHT22;127;48.770;9.212;2023-03-23T00:47:40;13.60;99.90
285;DHT22;127;48.770;9.212;2023-03-23T00:50:12;13.50;99.90
285;DHT22;127;48.770;9.212;2023-03-23T00:52:43;13.40;99.90
285;DHT22;127;48.770;9.212;2023-03-23T00:55:11;13.40;99.90
285;DHT22;127;48.770;9.212;2023-03-23T00:57:40;13.40;99.90
285;DHT22;127;48.770;9.212;2023-03-23T01:00:13;13.30;99.90
285;DHT22;127;48.770;9.212;2023-03-23T01:02:42;13.20;99.90
285;DHT22;127;48.770;9.212;2023-03-23T01:05:11;13.10;99.90
285;DHT22;127;48.770;9.212;2023-03-23T01:07:40;13.10;99.90
285;DHT22;127;48.770;9.212;2023-03-23T01:10:11;13.10;99.90
285;DHT22;127;48.770;9.212;2023-03-23T01:12:42;13.10;99.90
285;DHT22;127;48.770;9.212;2023-03-23T01:15:16;13.10;99.90
285;DHT22;127;48.770;9.212;2023-03-23T01:17:45;13.10;99.90
285;DHT22;127;48.770;9.212;2023-03-23T01:20:15;13.20;99.90
285;DHT22;127;48.770;9.212;2023-03-23T01:22:44;13.20;99.90
285;DHT22;127;48.770;9.212;2023-03-23T01:25:13;13.20;99.90
285;DHT22;127;48.770;9.212;2023-03-23T01:27:42;13.20;99.90
285;DHT22;127;48.770;9.212;2023-03-23T01:30:12;13.20;99.90
285;DHT22;127;48.770;9.212;2023-03-23T01:32:43;13.20;99.90
285;DHT22;127;48.770;9.212;2023-03-23T01:35:12;13.30;99.90
285;DHT22;127;48.770;9.212;2023-03-23T01:37:41;13.20;99.90
285;DHT22;127;48.770;9.212;2023-03-23T01:40:10;13.20;99.90
285;DHT22;127;48.770;9.212;2023-03-23T01:42:39;13.20;99.90
285;DHT22;127;48.770;9.212;2023-03-23T01:45:34;13.10;99.90
285;DHT22;127;48.770;9.212;2023-03-23T01:48:14;13.10;99.90
285;DHT22;127;48.770;9.212;2023-03-23T01:50:50;13.10;99.90
285;DHT22;127;48.770;9.212;2023-03-23T01:53:20;13.10;99.90
285;DHT22;127;48.770;9.212;2023-03-23T01:55:52;13.00;99.90
285;DHT22;127;48.770;9.212;2023-03-23T01:58:26;13.00;99.90
285;DHT22;127;48.770;9.212;2023-03-23T02:00:56;13.00;99.90
285;DHT22;127;48.770;9.212;2023-03-23T02:03:30;13.10;99.90
285;DHT22;127;48.770;9.212;2023-03-23T02:05:59;13.20;99.90
285;DHT22;127;48.770;9.212;2023-03-23T02:08:29;13.30;99.90
285;DHT22;127;48.770;9.212;2023-03-23T02:11:00;13.30;99.90
285;DHT22;127;48.770;9.212;2023-03-23T02:13:30;13.40;99.90
285;DHT22;127;48.770;9.212;2023-03-23T02:16:03;13.40;99.90
285;DHT22;127;48.770;9.212;2023-03-23T02:18:54;13.40;99.90
285;DHT22;127;48.770;9.212;2023-03-23T02:28:09;13.30;99.90
285;DHT22;127;48.770;9.212;2023-03-23T02:30:52;13.30;99.90
285;DHT22;127;48.770;9.212;2023-03-23T02:33:39;13.30;99.90
285;DHT22;127;48.770;9.212;2023-03-23T02:36:15;13.40;99.90
285;DHT22;127;48.770;9.212;2023-03-23T02:38:53;13.40;99.90
285;DHT22;127;48.770;9.212;2023-03-23T02:41:28;13.40;99.90
285;DHT22;127;48.770;9.212;2023-03-23T02:43:59;13.40;99.90
285;DHT22;127;48.770;9.212;2023-03-23T02:46:31;13.40;99.90
285;DHT22;127;48.770;9.212;2023-03-23T02:49:06;13.40;99.90
285;DHT22;127;48.770;9.212;2023-03-23T02:51:37;13.30;99.90
285;DHT22;127;48.770;9.212;2023-03-23T02:54:07;13.20;99.90
285;DHT22;127;48.770;9.212;2023-03-23T02:56:36;13.30;99.90
285;DHT22;127;48.770;9.212;2023-03-23T02:59:05;13.20;99.90
285;DHT22;127;48.770;9.212;2023-03-23T03:01:53;13.20;99.90
285;DHT22;127;48.770;9.212;2023-03-23T03:04:28;13.20;99.90
285;DHT22;127;48.770;9.212;2023-03-23T03:07:23;13.20;99.90
285;DHT22;127;48.770;9.212;2023-03-23T03:09:56;13.30;99.90
285;DHT22;127;48.770;9.212;2023-03-23T03:12:32;13.20;99.90
285;DHT22;127;48.770;9.212;2023-03-23T03:15:10;13.20;99.90
285;DHT22;127;48.770;9.212;2023-03-23T03:17:44;13.20;99.90
285;DHT22;127;48.770;9.212;2023-03-23T03:20:17;13.20;99.90
285;DHT22;127;48.770;9.212;2023-03-23T03:22:47;13.20;99.90
285;DHT22;127;48.770;9.212;2023-03-23T03:25:19;13.20;99.90
285;DHT22;127;48.770;9.212;2023-03-23T03:27:49;13.10;99.90
285;DHT22;127;48.770;9.212;2023-03-23T03:30:20;13.10;99.90
285;DHT22;127;48.770;9.212;2023-03-23T03:32:51;13.00;99.90
285;DHT22;127;48.770;9.212;2023-03-23T03:35:24;13.00;99.90
285;DHT22;127;48.770;9.212;2023-03-23T03:37:53;12.90;99.90
285;DHT22;127;48.770;9.212;2023-03-23T03:40:23;13.00;99.90
285;DHT22;127;48.770;9.212;2023-03-23T03:42:51;13.10;99.90
285;DHT22;127;48.770;9.212;2023-03-23T03:45:20;13.10;99.90
285;DHT22;127;48.770;9.212;2023-03-23T03:47:49;13.20;99.90
285;DHT22;127;48.770;9.212;2023-03-23T03:50:17;13.30;99.90
285;DHT22;127;48.770;9.212;2023-03-23T03:52:49;13.30;99.90
285;DHT22;127;48.770;9.212;2023-03-23T03:55:18;13.30;99.90
285;DHT22;127;48.770;9.212;2023-03-23T03:57:47;13.40;99.90
285;DHT22;127;48.770;9.212;2023-03-23T04:00:17;13.50;99.90
285;DHT22;127;48.770;9.212;2023-03-23T04:02:48;13.50;99.90
285;DHT22;127;48.770;9.212;2023-03-23T04:05:20;13.60;99.90
285;DHT22;127;48.770;9.212;2023-03-23T04:07:52;13.70;99.90
285;DHT22;127;48.770;9.212;2023-03-23T04:10:27;13.80;99.90
285;DHT22;127;48.770;9.212;2023-03-23T04:12:56;13.80;99.90
285;DHT22;127;48.770;9.212;2023-03-23T04:15:25;13.80;99.90
285;DHT22;127;48.770;9.212;2023-03-23T04:17:54;13.90;99.90
285;DHT22;127;48.770;9.212;2023-03-23T04:20:23;14.00;99.90
285;DHT22;127;48.770;9.212;2023-03-23T04:22:54;14.00;99.90
285;DHT22;127;48.770;9.212;2023-03-23T04:25:23;14.10;99.90
285;DHT22;127;48.770;9.212;2023-03-23T04:27:53;14.10;99.90
285;DHT22;127;48.770;9.212;2023-03-23T04:30:24;14.10;99.90
285;DHT22;127;48.770;9.212;2023-03-23T04:32:53;14.10;99.90
285;DHT22;127;48.770;9.212;2023-03-23T04:35:23;14.20;99.90
285;DHT22;127;48.770;9.212;2023-03-23T04:37:55;14.20;99.90
285;DHT22;127;48.770;9.212;2023-03-23T04:40:24;14.30;99.90
285;DHT22;127;48.770;9.212;2023-03-23T04:42:53;14.20;99.90
285;DHT22;127;48.770;9.212;2023-03-23T04:45:23;14.30;99.90
285;DHT22;127;48.770;9.212;2023-03-23T04:47:53;14.30;99.90
285;DHT22;127;48.770;9.212;2023-03-23T04:50:24;14.30;99.90
285;DHT22;127;48.770;9.212;2023-03-23T04:52:59;14.40;99.90
285;DHT22;127;48.770;9.212;2023-03-23T04:55:30;14.40;99.90
285;DHT22;127;48.770;9.212;2023-03-23T04:58:01;14.50;99.90
285;DHT22;127;48.770;9.212;2023-03-23T05:00:31;14.40;99.90
285;DHT22;127;48.770;9.212;2023-03-23T05:03:00;14.30;99.90
285;DHT22;127;48.770;9.212;2023-03-23T05:05:29;14.40;99.90
285;DHT22;127;48.770;9.212;2023-03-23T05:08:02;14.30;99.90
285;DHT22;127;48.770;9.212;2023-03-23T05:10:32;14.30;99.90
285;DHT22;127;48.770;9.212;2023-03-23T05:13:00;14.30;99.90
285;DHT22;127;48.770;9.212;2023-03-23T05:15:29;14.30;99.90
285;DHT22;127;48.770;9.212;2023-03-23T05:17:57;14.30;99.90
285;DHT22;127;48.770;9.212;2023-03-23T05:20:26;14.20;99.90
285;DHT22;127;48.770;9.212;2023-03-23T05:22:56;14.20;99.90
285;DHT22;127;48.770;9.212;2023-03-23T05:25:27;14.20;99.90
285;DHT22;127;48.770;9.212;2023-03-23T05:27:56;14.20;99.90
285;DHT22;127;48.770;9.212;2023-03-23T05:30:26;14.20;99.90
285;DHT22;127;48.770;9.212;2023-03-23T05:32:55;14.20;99.90
285;DHT22;127;48.770;9.212;2023-03-23T05:35:25;14.30;99.90
285;DHT22;127;48.770;9.212;2023-03-23T05:37:54;14.20;99.90
285;DHT22;127;48.770;9.212;2023-03-23T05:40:23;14.30;99.90
285;DHT22;127;48.770;9.212;2023-03-23T05:42:56;14.30;99.90
285;DHT22;127;48.770;9.212;2023-03-23T05:45:25;14.40;99.90
285;DHT22;127;48.770;9.212;2023-03-23T05:47:54;14.40;99.90
285;DHT22;127;48.770;9.212;2023-03-23T05:50:22;14.40;99.90
285;DHT22;127;48.770;9.212;2023-03-23T05:52:51;14.40;99.90
285;DHT22;127;48.770;9.212;2023-03-23T05:55:20;14.40;99.90
285;DHT22;127;48.770;9.212;2023-03-23T05:57:49;14.30;99.90
285;DHT22;127;48.770;9.212;2023-03-23T06:00:21;14.40;99.90
285;DHT22;127;48.770;9.212;2023-03-23T06:02:50;14.30;99.90
285;DHT22;127;48.770;9.212;2023-03-23T06:05:22;14.30;99.90
285;DHT22;127;48.770;9.212;2023-03-23T06:07:51;14.30;99.90
285;DHT22;127;48.770;9.212;2023-03-23T06:10:20;14.30;99.90
285;DHT22;127;48.770;9.212;2023-03-23T06:12:49;14.30;99.90
285;DHT22;127;48.770;9.212;2023-03-23T06:15:21;14.40;99.90
285;DHT22;127;48.770;9.212;2023-03-23T06:17:50;14.40;99.90
285;DHT22;127;48.770;9.212;2023-03-23T06:20:21;14.40;99.90
285;DHT22;127;48.770;9.212;2023-03-23T06:22:50;14.50;99.90
285;DHT22;127;48.770;9.212;2023-03-23T06:25:19;14.40;99.90
285;DHT22;127;48.770;9.212;2023-03-23T06:27:48;14.50;99.90
285;DHT22;127;48.770;9.212;2023-03-23T06:30:18;14.50;99.90
285;DHT22;127;48.770;9.212;2023-03-23T06:32:49;14.40;99.90
285;DHT22;127;48.770;9.212;2023-03-23T06:35:18;14.50;99.90
285;DHT22;127;48.770;9.212;2023-03-23T06:37:47;14.40;99.90
285;DHT22;127;48.770;9.212;2023-03-23T06:40:17;14.40;99.90
285;DHT22;127;48.770;9.212;2023-03-23T06:42:47;14.30;99.90
285;DHT22;127;48.770;9.212;2023-03-23T06:45:16;14.30;99.90
285;DHT22;127;48.770;9.212;2023-03-23T06:47:45;14.30;99.90
285;DHT22;127;48.770;9.212;2023-03-23T06:50:17;14.40;99.90
285;DHT22;127;48.770;9.212;2023-03-23T06:52:46;14.40;99.90
285;DHT22;127;48.770;9.212;2023-03-23T06:55:15;14.40;99.90
285;DHT22;127;48.770;9.212;2023-03-23T06:57:44;14.60;99.90
285;DHT22;127;48.770;9.212;2023-03-23T07:00:14;14.70;99.90
285;DHT22;127;48.770;9.212;2023-03-23T07:02:43;14.80;99.90
285;DHT22;127;48.770;9.212;2023-03-23T07:05:15;15.00;99.90
285;DHT22;127;48.770;9.212;2023-03-23T07:07:45;15.00;99.90
285;DHT22;127;48.770;9.212;2023-03-23T07:10:14;15.00;99.90
285;DHT22;127;48.770;9.212;2023-03-23T07:12:42;15.10;99.90
285;DHT22;127;48.770;9.212;2023-03-23T07:15:11;14.90;99.90
285;DHT22;127;48.770;9.212;2023-03-23T07:17:41;15.00;99.90
285;DHT22;127;48.770;9.212;2023-03-23T07:20:11;15.00;99.90
285;DHT22;127;48.770;9.212;2023-03-23T07:22:43;14.90;99.90
285;DHT22;127;48.770;9.212;2023-03-23T07:25:11;14.90;99.90
285;DHT22;127;48.770;9.212;2023-03-23T07:27:40;14.90;99.90
285;DHT22;127;48.770;9.212;2023-03-23T07:30:10;14.90;99.90
285;DHT22;127;48.770;9.212;2023-03-23T07:32:39;14.80;99.90
285;DHT22;127;48.770;9.212;2023-03-23T07:35:08;14.90;99.90
285;DHT22;127;48.770;9.212;2023-03-23T07:37:38;15.00;99.90
285;DHT22;127;48.770;9.212;2023-03-23T07:40:10;14.90;99.90
285;DHT22;127;48.770;9.212;2023-03-23T07:42:41;14.90;99.90
285;DHT22;127;48.770;9.212;2023-03-23T07:45:12;14.90;99.90
285;DHT22;127;48.770;9.212;2023-03-23T07:47:41;14.90;99.90
285;DHT22;127;48.770;9.212;2023-03-23T07:50:10;14.90;99.90
285;DHT22;127;48.770;9.212;2023-03-23T07:52:40;15.00;99.90
285;DHT22;127;48.770;9.212;2023-03-23T07:55:12;15.10;99.90
285;DHT22;127;48.770;9.212;2023-03-23T07:57:43;15.20;99.90
285;DHT22;127;48.770;9.212;2023-03-23T08:00:13;15.20;99.90
285;DHT22;127;48.770;9.212;2023-03-23T08:02:45;15.30;99.90
285;DHT22;127;48.770;9.212;2023-03-23T08:05:14;15.50;99.90
285;DHT22;127;48.770;9.212;2023-03-23T08:07:43;15.60;99.90
285;DHT22;127;48.770;9.212;2023-03-23T08:10:16;15.60;99.90
285;DHT22;127;48.770;9.212;2023-03-23T08:12:51;15.60;99.90
285;DHT22;127;48.770;9.212;2023-03-23T08:15:21;15.70;99.90
285;DHT22;127;48.770;9.212;2023-03-23T08:17:50;15.60;99.90
285;DHT22;127;48.770;9.212;2023-03-23T08:20:20;15.60;99.90
285;DHT22;127;48.770;9.212;2023-03-23T08:22:55;15.50;99.90
285;DHT22;127;48.770;9.212;2023-03-23T08:25:28;15.50;99.90
285;DHT22;127;48.770;9.212;2023-03-23T08:27:57;15.60;99.90
285;DHT22;127;48.770;9.212;2023-03-23T08:30:27;15.70;99.90
285;DHT22;127;48.770;9.212;2023-03-23T08:32:58;15.80;99.90
285;DHT22;127;48.770;9.212;2023-03-23T08:35:28;16.00;99.90
285;DHT22;127;48.770;9.212;2023-03-23T08:37:56;16.10;99.90
285;DHT22;127;48.770;9.212;2023-03-23T08:40:28;16.00;99.90
285;DHT22;127;48.770;9.212;2023-03-23T08:42:58;15.70;99.90
285;DHT22;127;48.770;9.212;2023-03-23T08:45:26;15.70;99.90
285;DHT22;127;48.770;9.212;2023-03-23T08:47:55;15.70;99.90
285;DHT22;127;48.770;9.212;2023-03-23T08:50:26;15.70;99.90
285;DHT22;127;48.770;9.212;2023-03-23T08:52:56;15.40;99.90
285;DHT22;127;48.770;9.212;2023-03-23T08:55:28;15.40;99.90
285;DHT22;127;48.770;9.212;2023-03-23T08:57:57;15.40;99.90
285;DHT22;127;48.770;9.212;2023-03-23T09:00:26;15.30;99.90
285;DHT22;127;48.770;9.212;2023-03-23T09:02:55;15.20;99.90
285;DHT22;127;48.770;9.212;2023-03-23T09:05:26;15.20;99.90
285;DHT22;127;48.770;9.212;2023-03-23T09:07:56;15.30;99.90
285;DHT22;127;48.770;9.212;2023-03-23T09:10:29;15.40;99.90
285;DHT22;127;48.770;9.212;2023-03-23T09:12:58;15.60;99.90
285;DHT22;127;48.770;9.212;2023-03-23T09:15:30;15.70;99.90
285;DHT22;127;48.770;9.212;2023-03-23T09:17:59;15.90;99.90
285;DHT22;127;48.770;9.212;2023-03-23T09:20:28;16.20;99.90
285;DHT22;127;48.770;9.212;2023-03-23T09:22:57;16.30;99.90
285;DHT22;127;48.770;9.212;2023-03-23T09:25:29;16.50;99.90
285;DHT22;127;48.770;9.212;2023-03-23T09:27:58;16.60;99.90
285;DHT22;127;48.770;9.212;2023-03-23T09:30:29;16.80;99.90
285;DHT22;127;48.770;9.212;2023-03-23T09:33:00;17.00;99.90
285;DHT22;127;48.770;9.212;2023-03-23T09:35:29;16.60;99.90
285;DHT22;127;48.770;9.212;2023-03-23T09:38:00;16.60;99.90
285;DHT22;127;48.770;9.212;2023-03-23T09:40:35;16.20;99.90
285;DHT22;127;48.770;9.212;2023-03-23T09:43:42;16.00;99.90
285;DHT22;127;48.770;9.212;2023-03-23T09:46:23;15.80;99.90
285;DHT22;127;48.770;9.212;2023-03-23T09:48:56;15.70;99.90
285;DHT22;127;48.770;9.212;2023-03-23T09:51:38;15.80;99.90
285;DHT22;127;48.770;9.212;2023-03-23T09:54:13;15.80;99.90
285;DHT22;127;48.770;9.212;2023-03-23T09:56:46;15.70;99.90
285;DHT22;127;48.770;9.212;2023-03-23T09:59:20;15.80;99.90
285;DHT22;127;48.770;9.212;2023-03-23T10:01:52;15.70;99.90
285;DHT22;127;48.770;9.212;2023-03-23T10:04:36;15.80;99.90
285;DHT22;127;48.770;9.212;2023-03-23T10:07:10;16.10;99.90
285;DHT22;127;48.770;9.212;2023-03-23T10:09:40;16.40;99.90
285;DHT22;127;48.770;9.212;2023-03-23T10:12:25;16.60;99.90
285;DHT22;127;48.770;9.212;2023-03-23T10:15:04;16.80;99.90
285;DHT22;127;48.770;9.212;2023-03-23T10:17:42;16.90;99.90
285;DHT22;127;48.770;9.212;2023-03-23T10:20:32;16.90;99.90
285;DHT22;127;48.770;9.212;2023-03-23T10:23:23;16.80;99.90
285;DHT22;127;48.770;9.212;2023-03-23T10:25:58;16.70;99.90
285;DHT22;127;48.770;9.212;2023-03-23T10:28:39;17.00;99.90
285;DHT22;127;48.770;9.212;2023-03-23T10:31:11;17.10;99.90
285;DHT22;127;48.770;9.212;2023-03-23T10:33:44;17.10;99.90
285;DHT22;127;48.770;9.212;2023-03-23T10:36:17;17.10;99.90
285;DHT22;127;48.770;9.212;2023-03-23T10:38:49;17.00;99.90
285;DHT22;127;48.770;9.212;2023-03-23T10:41:21;16.90;99.90
285;DHT22;127;48.770;9.212;2023-03-23T10:43:52;16.90;99.90
285;DHT22;127;48.770;9.212;2023-03-23T10:46:27;16.40;99.90
285;DHT22;127;48.770;9.212;2023-03-23T10:48:59;16.40;99.90
285;DHT22;127;48.770;9.212;2023-03-23T10:51:35;16.40;99.90
285;DHT22;127;48.770;9.212;2023-03-23T10:54:05;16.50;99.90
285;DHT22;127;48.770;9.212;2023-03-23T10:56:37;16.60;99.90
285;DHT22;127;48.770;9.212;2023-03-23T10:59:19;16.40;99.90
285;DHT22;127;48.770;9.212;2023-03-23T11:01:51;16.60;99.90
285;DHT22;127;48.770;9.212;2023-03-23T11:04:21;16.60;99.90
285;DHT22;127;48.770;9.212;2023-03-23T11:06:52;16.60;99.90
285;DHT22;127;48.770;9.212;2023-03-23T11:09:35;16.80;99.90
285;DHT22;127;48.770;9.212;2023-03-23T11:12:04;16.80;99.90
285;DHT22;127;48.770;9.212;2023-03-23T11:14:35;16.80;99.90
285;DHT22;127;48.770;9.212;2023-03-23T11:17:19;16.60;99.90
285;DHT22;127;48.770;9.212;2023-03-23T11:19:49;16.80;99.90
285;DHT22;127;48.770;9.212;2023-03-23T11:22:24;16.50;99.90
285;DHT22;127;48.770;9.212;2023-03-23T11:24:55;16.50;99.90
285;DHT22;127;48.770;9.212;2023-03-23T11:27:24;16.60;99.90
285;DHT22;127;48.770;9.212;2023-03-23T11:30:00;16.80;99.90
285;DHT22;127;48.770;9.212;2023-03-23T11:32:30;16.80;99.90
285;DHT22;127;48.770;9.212;2023-03-23T11:35:00;16.90;99.90
285;DHT22;127;48.770;9.212;2023-03-23T11:37:32;16.70;99.90
285;DHT22;127;48.770;9.212;2023-03-23T11:40:13;16.50;99.90
285;DHT22;127;48.770;9.212;2023-03-23T11:42:45;16.80;99.90
285;DHT22;127;48.770;9.212;2023-03-23T11:45:21;17.10;99.90
285;DHT22;127;48.770;9.212;2023-03-23T11:47:58;17.20;99.90
285;DHT22;127;48.770;9.212;2023-03-23T11:50:29;17.30;99.90
285;DHT22;127;48.770;9.212;2023-03-23T11:53:02;17.50;99.90
285;DHT22;127;48.770;9.212;2023-03-23T11:55:52;17.80;99.90
285;DHT22;127;48.770;9.212;2023-03-23T11:58:22;17.90;99.90
285;DHT22;127;48.770;9.212;2023-03-23T12:01:05;17.70;99.90
285;DHT22;127;48.770;9.212;2023-03-23T12:06:37;17.80;99.90
285;DHT22;127;48.770;9.212;2023-03-23T12:09:18;18.10;99.90
285;DHT22;127;48.770;9.212;2023-03-23T12:11:56;17.60;99.90
285;DHT22;127;48.770;9.212;2023-03-23T12:14:33;17.80;99.90
285;DHT22;127;48.770;9.212;2023-03-23T12:17:17;17.60;99.90
285;DHT22;127;48.770;9.212;2023-03-23T12:19:55;17.40;99.90
285;DHT22;127;48.770;9.212;2023-03-23T12:22:35;17.30;99.90
285;DHT22;127;48.770;9.212;2023-03-23T12:25:21;17.60;99.90
285;DHT22;127;48.770;9.212;2023-03-23T12:27:55;17.60;99.90
285;DHT22;127;48.770;9.212;2023-03-23T12:30:33;17.60;99.90
285;DHT22;127;48.770;9.212;2023-03-23T12:33:21;17.50;99.90
285;DHT22;127;48.770;9.212;2023-03-23T12:36:01;17.50;99.90
285;DHT22;127;48.770;9.212;2023-03-23T12:39:02;17.30;99.90
285;DHT22;127;48.770;9.212;2023-03-23T12:41:36;17.20;99.90
285;DHT22;127;48.770;9.212;2023-03-23T12:44:09;17.20;99.90
285;DHT22;127;48.770;9.212;2023-03-23T12:47:07;17.50;99.90
285;DHT22;127;48.770;9.212;2023-03-23T12:49:46;17.70;99.90
285;DHT22;127;48.770;9.212;2023-03-23T12:52:20;18.10;99.90
285;DHT22;127;48.770;9.212;2023-03-23T12:54:55;18.50;99.90
285;DHT22;127;48.770;9.212;2023-03-23T12:57:31;18.60;99.90
285;DHT22;127;48.770;9.212;2023-03-23T13:00:06;18.70;99.90
285;DHT22;127;48.770;9.212;2023-03-23T13:02:41;18.10;99.90
285;DHT22;127;48.770;9.212;2023-03-23T13:05:28;17.70;99.90
285;DHT22;127;48.770;9.212;2023-03-23T13:08:06;17.60;99.90
285;DHT22;127;48.770;9.212;2023-03-23T13:10:41;17.50;99.90
285;DHT22;127;48.770;9.212;2023-03-23T13:13:16;17.50;99.90
285;DHT22;127;48.770;9.212;2023-03-23T13:15:55;17.50;99.90
285;DHT22;127;48.770;9.212;2023-03-23T13:18:44;17.40;99.90
285;DHT22;127;48.770;9.212;2023-03-23T13:21:23;17.50;99.90
285;DHT22;127;48.770;9.212;2023-03-23T13:23:56;17.70;99.90
285;DHT22;127;48.770;9.212;2023-03-23T13:26:26;17.80;99.90
285;DHT22;127;48.770;9.212;2023-03-23T13:28:57;17.80;99.90
285;DHT22;127;48.770;9.212;2023-03-23T13:31:28;17.80;99.90
285;DHT22;127;48.770;9.212;2023-03-23T13:34:02;18.10;99.90
285;DHT22;127;48.770;9.212;2023-03-23T13:36:36;18.50;99.90
285;DHT22;127;48.770;9.212;2023-03-23T13:39:17;18.60;99.90
285;DHT22;127;48.770;9.212;2023-03-23T13:41:47;18.30;99.90
285;DHT22;127;48.770;9.212;2023-03-23T13:44:23;18.00;99.90
285;DHT22;127;48.770;9.212;2023-03-23T13:47:07;17.80;99.90
285;DHT22;127;48.770;9.212;2023-03-23T13:49:46;17.80;99.90
285;DHT22;127;48.770;9.212;2023-03-23T13:52:23;17.80;99.90
285;DHT22;127;48.770;9.212;2023-03-23T13:55:19;18.00;99.90
285;DHT22;127;48.770;9.212;2023-03-23T13:57:51;18.00;99.90
285;DHT22;127;48.770;9.212;2023-03-23T14:00:37;17.80;99.90
285;DHT22;127;48.770;9.212;2023-03-23T14:03:15;17.90;99.90
285;DHT22;127;48.770;9.212;2023-03-23T14:05:47;17.80;99.90
285;DHT22;127;48.770;9.212;2023-03-23T14:08:38;17.90;99.90
285;DHT22;127;48.770;9.212;2023-03-23T14:11:12;17.90;99.90
285;DHT22;127;48.770;9.212;2023-03-23T14:13:46;17.90;99.90
285;DHT22;127;48.770;9.212;2023-03-23T14:16:17;17.80;99.90
285;DHT22;127;48.770;9.212;2023-03-23T14:18:53;17.90;99.90
285;DHT22;127;48.770;9.212;2023-03-23T14:21:31;17.90;99.90
285;DHT22;127;48.770;9.212;2023-03-23T14:24:10;18.00;99.90
285;DHT22;127;48.770;9.212;2023-03-23T14:26:39;17.90;99.90
285;DHT22;127;48.770;9.212;2023-03-23T14:29:11;17.80;99.90
285;DHT22;127;48.770;9.212;2023-03-23T14:31:40;17.70;99.90
285;DHT22;127;48.770;9.212;2023-03-23T14:34:14;17.60;99.90
285;DHT22;127;48.770;9.212;2023-03-23T14:36:43;17.70;99.90
285;DHT22;127;48.770;9.212;2023-03-23T14:39:20;17.70;99.90
285;DHT22;127;48.770;9.212;2023-03-23T14:41:51;17.60;99.90
285;DHT22;127;48.770;9.212;2023-03-23T14:44:23;17.80;99.90
285;DHT22;127;48.770;9.212;2023-03-23T14:46:53;17.60;99.90
285;DHT22;127;48.770;9.212;2023-03-23T14:49:29;17.60;99.90
285;DHT22;127;48.770;9.212;2023-03-23T14:52:07;17.50;99.90
285;DHT22;127;48.770;9.212;2023-03-23T14:54:40;17.60;99.90
285;DHT22;127;48.770;9.212;2023-03-23T14:57:14;17.50;99.90
285;DHT22;127;48.770;9.212;2023-03-23T14:59:44;17.40;99.90
285;DHT22;127;48.770;9.212;2023-03-23T15:02:16;17.30;99.90
285;DHT22;127;48.770;9.212;2023-03-23T15:04:47;17.40;99.90
285;DHT22;127;48.770;9.212;2023-03-23T15:07:16;17.40;99.90
285;DHT22;127;48.770;9.212;2023-03-23T15:09:48;17.50;99.90
285;DHT22;127;48.770;9.212;2023-03-23T15:12:22;17.60;99.90
285;DHT22;127;48.770;9.212;2023-03-23T15:14:55;17.70;99.90
285;DHT22;127;48.770;9.212;2023-03-23T15:17:25;17.50;99.90
285;DHT22;127;48.770;9.212;2023-03-23T15:19:55;17.60;99.90
285;DHT22;127;48.770;9.212;2023-03-23T15:22:26;17.70;99.90
285;DHT22;127;48.770;9.212;2023-03-23T15:25:09;17.70;99.90
285;DHT22;127;48.770;9.212;2023-03-23T15:27:41;17.70;99.90
285;DHT22;127;48.770;9.212;2023-03-23T15:30:31;17.70;99.90
285;DHT22;127;48.770;9.212;2023-03-23T15:33:02;17.90;99.90
285;DHT22;127;48.770;9.212;2023-03-23T15:35:34;17.60;99.90
285;DHT22;127;48.770;9.212;2023-03-23T15:38:05;17.50;99.90
285;DHT22;127;48.770;9.212;2023-03-23T15:40:37;17.40;99.90
285;DHT22;127;48.770;9.212;2023-03-23T15:43:17;17.20;99.90
285;DHT22;127;48.770;9.212;2023-03-23T15:45:57;17.20;99.90
285;DHT22;127;48.770;9.212;2023-03-23T15:48:29;17.10;99.90
285;DHT22;127;48.770;9.212;2023-03-23T15:50:58;17.10;99.90
285;DHT22;127;48.770;9.212;2023-03-23T15:53:30;17.10;99.90
285;DHT22;127;48.770;9.212;2023-03-23T15:56:03;17.10;99.90
285;DHT22;127;48.770;9.212;2023-03-23T15:58:33;17.00;99.90
285;DHT22;127;48.770;9.212;2023-03-23T16:01:05;16.90;99.90
285;DHT22;127;48.770;9.212;2023-03-23T16:03:38;17.00;99.90
285;DHT22;127;48.770;9.212;2023-03-23T16:06:10;17.00;99.90
285;DHT22;127;48.770;9.212;2023-03-23T16:08:39;16.80;99.90
285;DHT22;127;48.770;9.212;2023-03-23T16:11:12;16.80;99.90
285;DHT22;127;48.770;9.212;2023-03-23T16:13:40;16.80;99.90
285;DHT22;127;48.770;9.212;2023-03-23T16:16:13;16.70;99.90
285;DHT22;127;48.770;9.212;2023-03-23T16:18:43;16.60;99.90
285;DHT22;127;48.770;9.212;2023-03-23T16:21:11;16.50;99.90
285;DHT22;127;48.770;9.212;2023-03-23T16:23:40;16.60;99.90
285;DHT22;127;48.770;9.212;2023-03-23T16:26:14;16.50;99.90
285;DHT22;127;48.770;9.212;2023-03-23T16:28:43;16.50;99.90
285;DHT22;127;48.770;9.212;2023-03-23T16:31:11;16.40;99.90
285;DHT22;127;48.770;9.212;2023-03-23T16:33:40;16.30;99.90
285;DHT22;127;48.770;9.212;2023-03-23T16:36:11;16.30;99.90
285;DHT22;127;48.770;9.212;2023-03-23T16:38:41;16.30;99.90
285;DHT22;127;48.770;9.212;2023-03-23T16:41:09;16.30;99.90
285;DHT22;127;48.770;9.212;2023-03-23T16:43:40;16.20;99.90
285;DHT22;127;48.770;9.212;2023-03-23T16:46:10;16.20;99.90
285;DHT22;127;48.770;9.212;2023-03-23T16:48:39;16.20;99.90
285;DHT22;127;48.770;9.212;2023-03-23T16:51:09;16.10;99.90
285;DHT22;127;48.770;9.212;2023-03-23T16:53:37;16.10;99.90
285;DHT22;127;48.770;9.212;2023-03-23T16:56:06;16.00;99.90
285;DHT22;127;48.770;9.212;2023-03-23T16:58:35;16.00;99.90
285;DHT22;127;48.770;9.212;2023-03-23T17:01:06;15.90;99.90
285;DHT22;127;48.770;9.212;2023-03-23T17:03:35;15.90;99.90
285;DHT22;127;48.770;9.212;2023-03-23T17:06:05;15.90;99.90
285;DHT22;127;48.770;9.212;2023-03-23T17:08:34;16.00;99.90
285;DHT22;127;48.770;9.212;2023-03-23T17:11:02;15.90;99.90
285;DHT22;127;48.770;9.212;2023-03-23T17:13:31;15.80;99.90
285;DHT22;127;48.770;9.212;2023-03-23T17:16:00;15.90;99.90
285;DHT22;127;48.770;9.212;2023-03-23T17:18:31;15.80;99.90